sensor_id;sensor_type;location;lat;lon;timestamp;P1;durP1;ratioP1;P2;durP2;ratioP2
9124;SDS011;4597;48.730;9.114;2023-02-15T00:02:25;32.17;;;14.63;;
9124;SDS011;4597;48.730;9.114;2023-02-15T00:04:51;20.47;;;13.30;;
9124;SDS011;4597;48.730;9.114;2023-02-15T00:07:18;18.80;;;12.90;;
9124;SDS011;4597;48.730;9.114;2023-02-15T00:09:47;28.10;;;13.70;;
9124;SDS011;4597;48.730;9.114;2023-02-15T00:12:13;55.70;;;14.00;;
9124;SDS011;4597;48.730;9.114;2023-02-15T00:14:39;33.90;;;13.83;;
9124;SDS011;4597;48.730;9.114;2023-02-15T00:17:05;28.87;;;12.87;;
9124;SDS011;4597;48.730;9.114;2023-02-15T00:19:30;19.07;;;12.23;;
9124;SDS011;4597;48.730;9.114;2023-02-15T00:21:56;23.47;;;13.73;;
9124;SDS011;4597;48.730;9.114;2023-02-15T00:24:21;29.47;;;13.67;;
9124;SDS011;4597;48.730;9.114;2023-02-15T00:26:47;42.40;;;14.07;;
9124;SDS011;4597;48.730;9.114;2023-02-15T00:29:14;33.43;;;13.80;;
9124;SDS011;4597;48.730;9.114;2023-02-15T00:31:42;37.10;;;13.60;;
9124;SDS011;4597;48.730;9.114;2023-02-15T00:34:10;28.67;;;12.77;;
9124;SDS011;4597;48.730;9.114;2023-02-15T00:36:40;25.20;;;12.20;;
9124;SDS011;4597;48.730;9.114;2023-02-15T00:39:06;31.53;;;13.37;;
9124;SDS011;4597;48.730;9.114;2023-02-15T00:41:32;35.97;;;13.80;;
9124;SDS011;4597;48.730;9.114;2023-02-15T00:43:58;25.73;;;11.83;;
9124;SDS011;4597;48.730;9.114;2023-02-15T00:46:24;44.83;;;13.40;;
9124;SDS011;4597;48.730;9.114;2023-02-15T00:48:50;24.07;;;11.87;;
9124;SDS011;4597;48.730;9.114;2023-02-15T00:51:15;80.20;;;15.37;;
9124;SDS011;4597;48.730;9.114;2023-02-15T00:53:42;35.33;;;12.20;;
9124;SDS011;4597;48.730;9.114;2023-02-15T00:56:09;39.27;;;13.47;;
9124;SDS011;4597;48.730;9.114;2023-02-15T00:58:35;29.03;;;13.00;;
9124;SDS011;4597;48.730;9.114;2023-02-15T01:01:07;33.90;;;13.13;;
9124;SDS011;4597;48.730;9.114;2023-02-15T01:03:34;27.47;;;12.53;;
9124;SDS011;4597;48.730;9.114;2023-02-15T01:06:00;19.73;;;12.07;;
9124;SDS011;4597;48.730;9.114;2023-02-15T01:08:27;26.67;;;11.90;;
9124;SDS011;4597;48.730;9.114;2023-02-15T01:10:53;54.70;;;13.20;;
9124;SDS011;4597;48.730;9.114;2023-02-15T01:13:19;36.07;;;11.70;;
9124;SDS011;4597;48.730;9.114;2023-02-15T01:15:45;23.43;;;11.20;;
9124;SDS011;4597;48.730;9.114;2023-02-15T01:18:16;18.30;;;10.77;;
9124;SDS011;4597;48.730;9.114;2023-02-15T01:20:42;34.10;;;12.00;;
9124;SDS011;4597;48.730;9.114;2023-02-15T01:23:07;41.63;;;12.10;;
9124;SDS011;4597;48.730;9.114;2023-02-15T01:25:34;20.33;;;10.83;;
9124;SDS011;4597;48.730;9.114;2023-02-15T01:28:00;18.73;;;10.73;;
9124;SDS011;4597;48.730;9.114;2023-02-15T01:30:26;20.60;;;12.03;;
9124;SDS011;4597;48.730;9.114;2023-02-15T01:32:52;26.80;;;11.63;;
9124;SDS011;4597;48.730;9.114;2023-02-15T01:35:17;16.47;;;10.70;;
9124;SDS011;4597;48.730;9.114;2023-02-15T01:37:43;33.60;;;12.20;;
9124;SDS011;4597;48.730;9.114;2023-02-15T01:40:11;17.60;;;10.90;;
9124;SDS011;4597;48.730;9.114;2023-02-15T01:42:39;23.77;;;10.77;;
9124;SDS011;4597;48.730;9.114;2023-02-15T01:45:22;21.57;;;10.00;;
9124;SDS011;4597;48.730;9.114;2023-02-15T01:48:06;20.43;;;11.07;;
9124;SDS011;4597;48.730;9.114;2023-02-15T01:50:47;22.40;;;10.73;;
9124;SDS011;4597;48.730;9.114;2023-02-15T01:55:50;39.33;;;11.67;;
9124;SDS011;4597;48.730;9.114;2023-02-15T01:58:25;17.03;;;10.53;;
9124;SDS011;4597;48.730;9.114;2023-02-15T02:00:52;14.50;;;9.83;;
9124;SDS011;4597;48.730;9.114;2023-02-15T02:03:25;30.30;;;11.33;;
9124;SDS011;4597;48.730;9.114;2023-02-15T02:06:01;16.60;;;10.73;;
9124;SDS011;4597;48.730;9.114;2023-02-15T02:08:26;21.90;;;10.50;;
9124;SDS011;4597;48.730;9.114;2023-02-15T02:10:52;11.43;;;9.43;;
9124;SDS011;4597;48.730;9.114;2023-02-15T02:13:18;18.57;;;10.57;;
9124;SDS011;4597;48.730;9.114;2023-02-15T02:21:13;21.60;;;9.53;;
9124;SDS011;4597;48.730;9.114;2023-02-15T02:23:58;22.63;;;9.90;;
9124;SDS011;4597;48.730;9.114;2023-02-15T02:26:56;12.97;;;9.40;;
9124;SDS011;4597;48.730;9.114;2023-02-15T02:29:49;28.13;;;10.47;;
9124;SDS011;4597;48.730;9.114;2023-02-15T02:35:32;23.73;;;9.53;;
9124;SDS011;4597;48.730;9.114;2023-02-15T02:43:55;39.37;;;10.63;;
9124;SDS011;4597;48.730;9.114;2023-02-15T02:46:33;19.87;;;10.37;;
9124;SDS011;4597;48.730;9.114;2023-02-15T02:49:06;13.77;;;9.90;;
9124;SDS011;4597;48.730;9.114;2023-02-15T02:51:32;14.63;;;10.23;;
9124;SDS011;4597;48.730;9.114;2023-02-15T02:53:58;21.03;;;9.50;;
9124;SDS011;4597;48.730;9.114;2023-02-15T02:56:32;21.83;;;9.17;;
9124;SDS011;4597;48.730;9.114;2023-02-15T02:59:05;16.03;;;8.87;;
9124;SDS011;4597;48.730;9.114;2023-02-15T03:01:45;15.63;;;9.03;;
9124;SDS011;4597;48.730;9.114;2023-02-15T03:04:17;25.83;;;10.00;;
9124;SDS011;4597;48.730;9.114;2023-02-15T03:07:00;16.50;;;9.53;;
9124;SDS011;4597;48.730;9.114;2023-02-15T03:11:59;18.90;;;10.03;;
9124;SDS011;4597;48.730;9.114;2023-02-15T03:14:26;29.73;;;9.60;;
9124;SDS011;4597;48.730;9.114;2023-02-15T03:16:52;20.20;;;8.93;;
9124;SDS011;4597;48.730;9.114;2023-02-15T03:19:20;19.33;;;9.80;;
9124;SDS011;4597;48.730;9.114;2023-02-15T03:21:54;11.83;;;9.47;;
9124;SDS011;4597;48.730;9.114;2023-02-15T03:27:33;36.30;;;11.30;;
9124;SDS011;4597;48.730;9.114;2023-02-15T03:30:03;45.40;;;11.17;;
9124;SDS011;4597;48.730;9.114;2023-02-15T03:32:31;25.30;;;9.73;;
9124;SDS011;4597;48.730;9.114;2023-02-15T03:34:59;14.13;;;9.60;;
9124;SDS011;4597;48.730;9.114;2023-02-15T03:37:31;15.00;;;9.60;;
9124;SDS011;4597;48.730;9.114;2023-02-15T03:43:02;26.30;;;9.27;;
9124;SDS011;4597;48.730;9.114;2023-02-15T03:45:37;13.93;;;8.87;;
9124;SDS011;4597;48.730;9.114;2023-02-15T03:48:19;12.30;;;8.90;;
9124;SDS011;4597;48.730;9.114;2023-02-15T03:50:54;16.97;;;8.90;;
9124;SDS011;4597;48.730;9.114;2023-02-15T03:53:41;37.50;;;10.13;;
9124;SDS011;4597;48.730;9.114;2023-02-15T03:56:10;26.30;;;9.27;;
9124;SDS011;4597;48.730;9.114;2023-02-15T03:58:35;13.80;;;9.07;;
9124;SDS011;4597;48.730;9.114;2023-02-15T04:01:23;13.83;;;8.83;;
9124;SDS011;4597;48.730;9.114;2023-02-15T04:04:12;16.40;;;9.07;;
9124;SDS011;4597;48.730;9.114;2023-02-15T04:06:44;22.20;;;10.53;;
9124;SDS011;4597;48.730;9.114;2023-02-15T04:09:09;19.53;;;9.63;;
9124;SDS011;4597;48.730;9.114;2023-02-15T04:11:54;12.20;;;9.53;;
9124;SDS011;4597;48.730;9.114;2023-02-15T04:14:19;24.63;;;10.27;;
9124;SDS011;4597;48.730;9.114;2023-02-15T04:17:17;15.83;;;9.50;;
9124;SDS011;4597;48.730;9.114;2023-02-15T04:19:42;15.70;;;8.97;;
9124;SDS011;4597;48.730;9.114;2023-02-15T04:22:27;13.23;;;8.07;;
9124;SDS011;4597;48.730;9.114;2023-02-15T04:25:11;11.80;;;8.80;;
9124;SDS011;4597;48.730;9.114;2023-02-15T04:27:40;14.63;;;9.13;;
9124;SDS011;4597;48.730;9.114;2023-02-15T04:30:11;16.73;;;9.07;;
9124;SDS011;4597;48.730;9.114;2023-02-15T04:32:37;35.03;;;10.20;;
9124;SDS011;4597;48.730;9.114;2023-02-15T04:35:04;15.50;;;8.90;;
9124;SDS011;4597;48.730;9.114;2023-02-15T04:37:30;16.53;;;9.87;;
9124;SDS011;4597;48.730;9.114;2023-02-15T04:39:56;14.73;;;8.67;;
9124;SDS011;4597;48.730;9.114;2023-02-15T04:42:23;18.50;;;9.97;;
9124;SDS011;4597;48.730;9.114;2023-02-15T04:44:52;15.20;;;8.80;;
9124;SDS011;4597;48.730;9.114;2023-02-15T04:47:18;16.20;;;8.87;;
9124;SDS011;4597;48.730;9.114;2023-02-15T04:49:44;11.77;;;8.77;;
9124;SDS011;4597;48.730;9.114;2023-02-15T04:52:09;27.60;;;9.53;;
9124;SDS011;4597;48.730;9.114;2023-02-15T04:54:35;12.67;;;9.10;;
9124;SDS011;4597;48.730;9.114;2023-02-15T04:57:01;13.90;;;9.30;;
9124;SDS011;4597;48.730;9.114;2023-02-15T04:59:27;15.43;;;9.10;;
9124;SDS011;4597;48.730;9.114;2023-02-15T05:01:52;14.23;;;9.37;;
9124;SDS011;4597;48.730;9.114;2023-02-15T05:04:18;12.17;;;8.77;;
9124;SDS011;4597;48.730;9.114;2023-02-15T05:06:43;15.17;;;8.67;;
9124;SDS011;4597;48.730;9.114;2023-02-15T05:09:10;17.53;;;9.67;;
9124;SDS011;4597;48.730;9.114;2023-02-15T05:11:36;12.27;;;8.73;;
9124;SDS011;4597;48.730;9.114;2023-02-15T05:14:01;25.23;;;9.50;;
9124;SDS011;4597;48.730;9.114;2023-02-15T05:16:27;16.60;;;9.50;;
9124;SDS011;4597;48.730;9.114;2023-02-15T05:18:53;22.07;;;10.90;;
9124;SDS011;4597;48.730;9.114;2023-02-15T05:21:18;18.57;;;11.50;;
9124;SDS011;4597;48.730;9.114;2023-02-15T05:23:44;22.33;;;11.63;;
9124;SDS011;4597;48.730;9.114;2023-02-15T05:26:16;21.87;;;10.47;;
9124;SDS011;4597;48.730;9.114;2023-02-15T05:29:02;18.80;;;9.63;;
9124;SDS011;4597;48.730;9.114;2023-02-15T05:31:28;23.00;;;12.47;;
9124;SDS011;4597;48.730;9.114;2023-02-15T05:33:55;31.67;;;13.10;;
9124;SDS011;4597;48.730;9.114;2023-02-15T05:36:21;40.10;;;11.93;;
9124;SDS011;4597;48.730;9.114;2023-02-15T05:38:46;20.40;;;10.70;;
9124;SDS011;4597;48.730;9.114;2023-02-15T05:41:12;21.73;;;10.13;;
9124;SDS011;4597;48.730;9.114;2023-02-15T05:43:38;19.03;;;11.23;;
9124;SDS011;4597;48.730;9.114;2023-02-15T05:46:04;14.67;;;10.33;;
9124;SDS011;4597;48.730;9.114;2023-02-15T05:48:30;21.80;;;11.00;;
9124;SDS011;4597;48.730;9.114;2023-02-15T05:51:09;14.17;;;9.63;;
9124;SDS011;4597;48.730;9.114;2023-02-15T05:53:40;14.97;;;9.53;;
9124;SDS011;4597;48.730;9.114;2023-02-15T05:56:06;19.87;;;10.97;;
9124;SDS011;4597;48.730;9.114;2023-02-15T05:58:34;26.90;;;12.90;;
9124;SDS011;4597;48.730;9.114;2023-02-15T06:01:10;34.00;;;13.63;;
9124;SDS011;4597;48.730;9.114;2023-02-15T06:03:37;21.23;;;12.40;;
9124;SDS011;4597;48.730;9.114;2023-02-15T06:06:03;30.57;;;11.47;;
9124;SDS011;4597;48.730;9.114;2023-02-15T06:08:29;31.70;;;11.47;;
9124;SDS011;4597;48.730;9.114;2023-02-15T06:10:56;21.50;;;11.57;;
9124;SDS011;4597;48.730;9.114;2023-02-15T06:13:21;41.67;;;12.80;;
9124;SDS011;4597;48.730;9.114;2023-02-15T06:15:47;15.40;;;10.80;;
9124;SDS011;4597;48.730;9.114;2023-02-15T06:18:12;18.73;;;10.47;;
9124;SDS011;4597;48.730;9.114;2023-02-15T06:20:38;23.33;;;10.73;;
9124;SDS011;4597;48.730;9.114;2023-02-15T06:23:03;28.73;;;11.30;;
9124;SDS011;4597;48.730;9.114;2023-02-15T06:25:29;19.40;;;10.90;;
9124;SDS011;4597;48.730;9.114;2023-02-15T06:27:54;16.43;;;9.90;;
9124;SDS011;4597;48.730;9.114;2023-02-15T06:30:20;52.90;;;12.90;;
9124;SDS011;4597;48.730;9.114;2023-02-15T06:32:46;30.83;;;11.90;;
9124;SDS011;4597;48.730;9.114;2023-02-15T06:35:11;23.90;;;10.93;;
9124;SDS011;4597;48.730;9.114;2023-02-15T06:37:37;29.77;;;12.10;;
9124;SDS011;4597;48.730;9.114;2023-02-15T06:40:03;26.40;;;12.00;;
9124;SDS011;4597;48.730;9.114;2023-02-15T06:42:29;34.03;;;13.00;;
9124;SDS011;4597;48.730;9.114;2023-02-15T06:44:55;20.67;;;13.13;;
9124;SDS011;4597;48.730;9.114;2023-02-15T06:47:20;30.67;;;12.80;;
9124;SDS011;4597;48.730;9.114;2023-02-15T06:49:46;23.77;;;11.93;;
9124;SDS011;4597;48.730;9.114;2023-02-15T06:52:11;29.43;;;11.13;;
9124;SDS011;4597;48.730;9.114;2023-02-15T06:54:36;34.13;;;12.53;;
9124;SDS011;4597;48.730;9.114;2023-02-15T06:57:02;37.97;;;13.67;;
9124;SDS011;4597;48.730;9.114;2023-02-15T06:59:27;47.93;;;11.93;;
9124;SDS011;4597;48.730;9.114;2023-02-15T07:01:53;20.13;;;10.37;;
9124;SDS011;4597;48.730;9.114;2023-02-15T07:04:19;22.07;;;9.87;;
9124;SDS011;4597;48.730;9.114;2023-02-15T07:06:44;31.23;;;11.00;;
9124;SDS011;4597;48.730;9.114;2023-02-15T07:09:10;36.60;;;11.23;;
9124;SDS011;4597;48.730;9.114;2023-02-15T07:11:37;15.57;;;10.10;;
9124;SDS011;4597;48.730;9.114;2023-02-15T07:14:35;21.70;;;9.97;;
9124;SDS011;4597;48.730;9.114;2023-02-15T07:17:01;38.10;;;11.47;;
9124;SDS011;4597;48.730;9.114;2023-02-15T07:19:26;16.77;;;10.17;;
9124;SDS011;4597;48.730;9.114;2023-02-15T07:21:52;17.53;;;10.17;;
9124;SDS011;4597;48.730;9.114;2023-02-15T07:24:17;34.70;;;10.93;;
9124;SDS011;4597;48.730;9.114;2023-02-15T07:26:43;29.63;;;10.60;;
9124;SDS011;4597;48.730;9.114;2023-02-15T07:29:08;47.17;;;11.07;;
9124;SDS011;4597;48.730;9.114;2023-02-15T07:31:34;19.67;;;9.53;;
9124;SDS011;4597;48.730;9.114;2023-02-15T07:33:59;30.27;;;10.30;;
9124;SDS011;4597;48.730;9.114;2023-02-15T07:36:25;18.53;;;11.17;;
9124;SDS011;4597;48.730;9.114;2023-02-15T07:38:50;17.33;;;11.60;;
9124;SDS011;4597;48.730;9.114;2023-02-15T07:41:16;23.87;;;11.87;;
9124;SDS011;4597;48.730;9.114;2023-02-15T07:43:43;31.67;;;12.53;;
9124;SDS011;4597;48.730;9.114;2023-02-15T07:46:11;54.00;;;13.67;;
9124;SDS011;4597;48.730;9.114;2023-02-15T07:48:41;33.63;;;11.83;;
9124;SDS011;4597;48.730;9.114;2023-02-15T07:51:09;19.57;;;10.90;;
9124;SDS011;4597;48.730;9.114;2023-02-15T07:53:36;34.83;;;12.07;;
9124;SDS011;4597;48.730;9.114;2023-02-15T07:56:04;18.53;;;10.90;;
9124;SDS011;4597;48.730;9.114;2023-02-15T07:58:31;18.70;;;10.57;;
9124;SDS011;4597;48.730;9.114;2023-02-15T08:01:15;31.30;;;12.50;;
9124;SDS011;4597;48.730;9.114;2023-02-15T08:03:42;28.93;;;10.37;;
9124;SDS011;4597;48.730;9.114;2023-02-15T08:06:08;14.73;;;9.50;;
9124;SDS011;4597;48.730;9.114;2023-02-15T08:08:36;12.87;;;9.57;;
9124;SDS011;4597;48.730;9.114;2023-02-15T08:13:59;12.03;;;9.00;;
9124;SDS011;4597;48.730;9.114;2023-02-15T08:21:33;27.03;;;11.57;;
9124;SDS011;4597;48.730;9.114;2023-02-15T08:23:59;21.53;;;10.50;;
9124;SDS011;4597;48.730;9.114;2023-02-15T08:26:25;15.67;;;9.87;;
9124;SDS011;4597;48.730;9.114;2023-02-15T08:28:52;16.30;;;11.00;;
9124;SDS011;4597;48.730;9.114;2023-02-15T08:31:18;15.27;;;9.77;;
9124;SDS011;4597;48.730;9.114;2023-02-15T08:33:44;13.10;;;9.77;;
9124;SDS011;4597;48.730;9.114;2023-02-15T08:36:12;21.50;;;11.20;;
9124;SDS011;4597;48.730;9.114;2023-02-15T08:38:42;23.27;;;10.70;;
9124;SDS011;4597;48.730;9.114;2023-02-15T08:41:15;19.37;;;11.30;;
9124;SDS011;4597;48.730;9.114;2023-02-15T08:43:55;19.57;;;9.43;;
9124;SDS011;4597;48.730;9.114;2023-02-15T08:46:24;24.37;;;10.17;;
9124;SDS011;4597;48.730;9.114;2023-02-15T08:48:50;14.17;;;10.10;;
9124;SDS011;4597;48.730;9.114;2023-02-15T08:51:18;18.47;;;11.87;;
9124;SDS011;4597;48.730;9.114;2023-02-15T08:53:46;23.60;;;12.07;;
9124;SDS011;4597;48.730;9.114;2023-02-15T08:56:17;22.97;;;11.57;;
9124;SDS011;4597;48.730;9.114;2023-02-15T08:58:45;24.23;;;11.07;;
9124;SDS011;4597;48.730;9.114;2023-02-15T09:01:11;38.77;;;11.17;;
9124;SDS011;4597;48.730;9.114;2023-02-15T09:03:49;14.33;;;9.00;;
9124;SDS011;4597;48.730;9.114;2023-02-15T09:06:19;14.10;;;9.43;;
9124;SDS011;4597;48.730;9.114;2023-02-15T09:08:45;17.33;;;9.63;;
9124;SDS011;4597;48.730;9.114;2023-02-15T09:11:12;12.87;;;8.87;;
9124;SDS011;4597;48.730;9.114;2023-02-15T09:13:52;30.10;;;10.40;;
9124;SDS011;4597;48.730;9.114;2023-02-15T09:16:20;14.47;;;9.70;;
9124;SDS011;4597;48.730;9.114;2023-02-15T09:18:46;16.30;;;9.63;;
9124;SDS011;4597;48.730;9.114;2023-02-15T09:21:16;17.43;;;10.03;;
9124;SDS011;4597;48.730;9.114;2023-02-15T09:23:45;23.47;;;10.07;;
9124;SDS011;4597;48.730;9.114;2023-02-15T09:26:21;20.03;;;10.40;;
9124;SDS011;4597;48.730;9.114;2023-02-15T09:28:50;18.67;;;10.80;;
9124;SDS011;4597;48.730;9.114;2023-02-15T09:31:21;17.57;;;10.33;;
9124;SDS011;4597;48.730;9.114;2023-02-15T09:33:51;14.70;;;10.60;;
9124;SDS011;4597;48.730;9.114;2023-02-15T09:36:24;15.53;;;9.97;;
9124;SDS011;4597;48.730;9.114;2023-02-15T09:38:56;13.67;;;10.40;;
9124;SDS011;4597;48.730;9.114;2023-02-15T09:41:36;15.57;;;10.63;;
9124;SDS011;4597;48.730;9.114;2023-02-15T09:57:52;17.40;;;11.07;;
9124;SDS011;4597;48.730;9.114;2023-02-15T10:00:34;18.93;;;10.67;;
9124;SDS011;4597;48.730;9.114;2023-02-15T10:09:00;19.90;;;12.03;;
9124;SDS011;4597;48.730;9.114;2023-02-15T10:12:06;16.33;;;11.53;;
9124;SDS011;4597;48.730;9.114;2023-02-15T10:14:48;23.70;;;12.73;;
9124;SDS011;4597;48.730;9.114;2023-02-15T10:17:47;25.43;;;12.23;;
9124;SDS011;4597;48.730;9.114;2023-02-15T10:31:34;16.03;;;11.57;;
9124;SDS011;4597;48.730;9.114;2023-02-15T10:34:19;20.97;;;12.33;;
9124;SDS011;4597;48.730;9.114;2023-02-15T10:43:08;16.10;;;11.90;;
9124;SDS011;4597;48.730;9.114;2023-02-15T10:49:08;18.23;;;12.43;;
9124;SDS011;4597;48.730;9.114;2023-02-15T11:00:45;21.17;;;13.43;;
9124;SDS011;4597;48.730;9.114;2023-02-15T11:06:07;20.43;;;13.00;;
9124;SDS011;4597;48.730;9.114;2023-02-15T11:08:39;17.77;;;12.40;;
9124;SDS011;4597;48.730;9.114;2023-02-15T11:11:44;20.17;;;13.73;;
9124;SDS011;4597;48.730;9.114;2023-02-15T11:16:44;17.93;;;12.40;;
9124;SDS011;4597;48.730;9.114;2023-02-15T11:19:13;18.00;;;14.03;;
9124;SDS011;4597;48.730;9.114;2023-02-15T11:22:16;18.30;;;14.57;;
9124;SDS011;4597;48.730;9.114;2023-02-15T11:24:44;21.67;;;16.33;;
9124;SDS011;4597;48.730;9.114;2023-02-15T11:29:38;17.80;;;13.57;;
9124;SDS011;4597;48.730;9.114;2023-02-15T11:37:50;18.93;;;14.37;;
9124;SDS011;4597;48.730;9.114;2023-02-15T11:40:24;17.90;;;14.07;;
9124;SDS011;4597;48.730;9.114;2023-02-15T11:42:51;19.27;;;14.27;;
9124;SDS011;4597;48.730;9.114;2023-02-15T11:45:30;17.23;;;14.30;;
9124;SDS011;4597;48.730;9.114;2023-02-15T11:47:57;18.80;;;14.57;;
9124;SDS011;4597;48.730;9.114;2023-02-15T11:50:25;21.43;;;14.47;;
9124;SDS011;4597;48.730;9.114;2023-02-15T11:52:58;21.30;;;13.87;;
9124;SDS011;4597;48.730;9.114;2023-02-15T11:55:26;18.23;;;13.90;;
9124;SDS011;4597;48.730;9.114;2023-02-15T12:00:38;17.93;;;14.57;;
9124;SDS011;4597;48.730;9.114;2023-02-15T12:03:14;21.93;;;15.17;;
9124;SDS011;4597;48.730;9.114;2023-02-15T12:05:45;18.63;;;14.43;;
9124;SDS011;4597;48.730;9.114;2023-02-15T12:08:19;21.10;;;16.03;;
9124;SDS011;4597;48.730;9.114;2023-02-15T12:13:58;19.70;;;14.87;;
9124;SDS011;4597;48.730;9.114;2023-02-15T12:16:31;20.37;;;14.90;;
9124;SDS011;4597;48.730;9.114;2023-02-15T12:19:04;22.33;;;16.23;;
9124;SDS011;4597;48.730;9.114;2023-02-15T12:21:31;18.90;;;15.37;;
9124;SDS011;4597;48.730;9.114;2023-02-15T12:24:43;19.23;;;14.60;;
9124;SDS011;4597;48.730;9.114;2023-02-15T12:27:16;20.33;;;15.17;;
9124;SDS011;4597;48.730;9.114;2023-02-15T12:32:18;20.63;;;15.27;;
9124;SDS011;4597;48.730;9.114;2023-02-15T12:34:48;26.20;;;17.33;;
9124;SDS011;4597;48.730;9.114;2023-02-15T12:37:17;26.03;;;16.97;;
9124;SDS011;4597;48.730;9.114;2023-02-15T12:39:55;26.53;;;17.63;;
9124;SDS011;4597;48.730;9.114;2023-02-15T12:42:22;26.03;;;16.40;;
9124;SDS011;4597;48.730;9.114;2023-02-15T12:44:53;22.47;;;16.80;;
9124;SDS011;4597;48.730;9.114;2023-02-15T12:47:21;27.73;;;17.17;;
9124;SDS011;4597;48.730;9.114;2023-02-15T12:52:41;24.27;;;16.80;;
9124;SDS011;4597;48.730;9.114;2023-02-15T12:55:22;24.50;;;16.47;;
9124;SDS011;4597;48.730;9.114;2023-02-15T13:00:43;20.13;;;15.43;;
9124;SDS011;4597;48.730;9.114;2023-02-15T13:03:16;22.97;;;17.47;;
9124;SDS011;4597;48.730;9.114;2023-02-15T13:05:44;22.33;;;16.73;;
9124;SDS011;4597;48.730;9.114;2023-02-15T13:08:15;19.53;;;16.27;;
9124;SDS011;4597;48.730;9.114;2023-02-15T13:11:09;22.57;;;15.77;;
9124;SDS011;4597;48.730;9.114;2023-02-15T13:13:45;18.93;;;15.90;;
9124;SDS011;4597;48.730;9.114;2023-02-15T13:16:23;20.30;;;16.30;;
9124;SDS011;4597;48.730;9.114;2023-02-15T13:19:05;29.37;;;16.87;;
9124;SDS011;4597;48.730;9.114;2023-02-15T13:21:38;28.47;;;16.63;;
9124;SDS011;4597;48.730;9.114;2023-02-15T13:24:10;23.43;;;16.43;;
9124;SDS011;4597;48.730;9.114;2023-02-15T13:26:40;22.10;;;16.43;;
9124;SDS011;4597;48.730;9.114;2023-02-15T13:29:23;24.50;;;16.67;;
9124;SDS011;4597;48.730;9.114;2023-02-15T13:31:56;22.90;;;16.90;;
9124;SDS011;4597;48.730;9.114;2023-02-15T13:34:25;26.07;;;17.40;;
9124;SDS011;4597;48.730;9.114;2023-02-15T13:39:43;23.13;;;19.53;;
9124;SDS011;4597;48.730;9.114;2023-02-15T13:42:39;23.70;;;18.03;;
9124;SDS011;4597;48.730;9.114;2023-02-15T13:45:27;25.40;;;18.07;;
9124;SDS011;4597;48.730;9.114;2023-02-15T13:57:28;22.33;;;17.43;;
9124;SDS011;4597;48.730;9.114;2023-02-15T14:00:21;24.03;;;19.83;;
9124;SDS011;4597;48.730;9.114;2023-02-15T14:06:04;23.00;;;18.90;;
9124;SDS011;4597;48.730;9.114;2023-02-15T14:12:10;21.90;;;17.67;;
9124;SDS011;4597;48.730;9.114;2023-02-15T14:17:49;21.33;;;17.67;;
9124;SDS011;4597;48.730;9.114;2023-02-15T14:23:00;21.83;;;16.97;;
9124;SDS011;4597;48.730;9.114;2023-02-15T14:25:30;22.53;;;18.87;;
9124;SDS011;4597;48.730;9.114;2023-02-15T14:28:06;22.17;;;18.80;;
9124;SDS011;4597;48.730;9.114;2023-02-15T14:30:34;25.30;;;19.57;;
9124;SDS011;4597;48.730;9.114;2023-02-15T14:35:40;23.97;;;18.97;;
9124;SDS011;4597;48.730;9.114;2023-02-15T14:46:50;21.00;;;17.60;;
9124;SDS011;4597;48.730;9.114;2023-02-15T14:49:33;22.03;;;16.20;;
9124;SDS011;4597;48.730;9.114;2023-02-15T14:52:03;19.00;;;16.97;;
9124;SDS011;4597;48.730;9.114;2023-02-15T14:59:36;19.47;;;17.37;;
9124;SDS011;4597;48.730;9.114;2023-02-15T15:07:00;17.33;;;15.57;;
9124;SDS011;4597;48.730;9.114;2023-02-15T15:09:46;17.97;;;16.07;;
9124;SDS011;4597;48.730;9.114;2023-02-15T15:14:50;19.67;;;17.60;;
9124;SDS011;4597;48.730;9.114;2023-02-15T15:19:58;17.57;;;15.60;;
9124;SDS011;4597;48.730;9.114;2023-02-15T15:23:44;18.17;;;15.60;;
9124;SDS011;4597;48.730;9.114;2023-02-15T15:25:46;18.20;;;15.43;;
9124;SDS011;4597;48.730;9.114;2023-02-15T15:31:15;23.57;;;17.83;;
9124;SDS011;4597;48.730;9.114;2023-02-15T15:43:08;20.57;;;17.83;;
9124;SDS011;4597;48.730;9.114;2023-02-15T15:45:23;21.20;;;16.80;;
9124;SDS011;4597;48.730;9.114;2023-02-15T15:50:52;20.10;;;16.70;;
9124;SDS011;4597;48.730;9.114;2023-02-15T15:53:20;22.80;;;17.13;;
9124;SDS011;4597;48.730;9.114;2023-02-15T15:55:49;21.33;;;17.27;;
9124;SDS011;4597;48.730;9.114;2023-02-15T15:58:19;18.60;;;16.47;;
9124;SDS011;4597;48.730;9.114;2023-02-15T16:01:04;22.20;;;18.03;;
9124;SDS011;4597;48.730;9.114;2023-02-15T16:03:33;20.00;;;16.93;;
9124;SDS011;4597;48.730;9.114;2023-02-15T16:05:59;27.93;;;18.50;;
9124;SDS011;4597;48.730;9.114;2023-02-15T16:10:59;25.67;;;16.60;;
9124;SDS011;4597;48.730;9.114;2023-02-15T16:13:32;25.57;;;16.73;;
9124;SDS011;4597;48.730;9.114;2023-02-15T16:15:58;25.50;;;16.93;;
9124;SDS011;4597;48.730;9.114;2023-02-15T16:18:25;28.67;;;17.30;;
9124;SDS011;4597;48.730;9.114;2023-02-15T16:26:14;23.17;;;16.87;;
9124;SDS011;4597;48.730;9.114;2023-02-15T16:28:54;24.77;;;16.37;;
9124;SDS011;4597;48.730;9.114;2023-02-15T16:31:20;24.23;;;16.43;;
9124;SDS011;4597;48.730;9.114;2023-02-15T16:33:51;27.50;;;17.83;;
9124;SDS011;4597;48.730;9.114;2023-02-15T16:41:23;23.50;;;16.20;;
9124;SDS011;4597;48.730;9.114;2023-02-15T16:43:52;21.70;;;16.73;;
9124;SDS011;4597;48.730;9.114;2023-02-15T16:46:20;23.03;;;17.13;;
9124;SDS011;4597;48.730;9.114;2023-02-15T16:48:52;25.63;;;19.30;;
9124;SDS011;4597;48.730;9.114;2023-02-15T16:51:23;25.47;;;17.93;;
9124;SDS011;4597;48.730;9.114;2023-02-15T16:53:51;23.77;;;17.70;;
9124;SDS011;4597;48.730;9.114;2023-02-15T16:56:22;21.23;;;16.53;;
9124;SDS011;4597;48.730;9.114;2023-02-15T16:58:53;23.27;;;16.90;;
9124;SDS011;4597;48.730;9.114;2023-02-15T17:01:20;26.37;;;17.63;;
9124;SDS011;4597;48.730;9.114;2023-02-15T17:03:49;21.10;;;17.03;;
9124;SDS011;4597;48.730;9.114;2023-02-15T17:06:20;25.83;;;17.37;;
9124;SDS011;4597;48.730;9.114;2023-02-15T17:08:47;24.30;;;17.30;;
9124;SDS011;4597;48.730;9.114;2023-02-15T17:11:14;22.83;;;16.50;;
9124;SDS011;4597;48.730;9.114;2023-02-15T17:16:30;23.83;;;16.73;;
9124;SDS011;4597;48.730;9.114;2023-02-15T17:18:58;22.10;;;16.47;;
9124;SDS011;4597;48.730;9.114;2023-02-15T17:21:28;25.00;;;16.63;;
9124;SDS011;4597;48.730;9.114;2023-02-15T17:23:58;25.00;;;17.17;;
9124;SDS011;4597;48.730;9.114;2023-02-15T17:26:30;28.83;;;18.50;;
9124;SDS011;4597;48.730;9.114;2023-02-15T17:29:02;26.67;;;19.37;;
9124;SDS011;4597;48.730;9.114;2023-02-15T17:31:53;27.87;;;20.07;;
9124;SDS011;4597;48.730;9.114;2023-02-15T17:34:41;29.00;;;20.60;;
9124;SDS011;4597;48.730;9.114;2023-02-15T17:37:13;29.83;;;19.67;;
9124;SDS011;4597;48.730;9.114;2023-02-15T17:39:50;27.93;;;19.47;;
9124;SDS011;4597;48.730;9.114;2023-02-15T17:42:16;31.77;;;22.03;;
9124;SDS011;4597;48.730;9.114;2023-02-15T17:44:42;38.20;;;22.57;;
9124;SDS011;4597;48.730;9.114;2023-02-15T17:47:09;38.07;;;23.57;;
9124;SDS011;4597;48.730;9.114;2023-02-15T17:49:44;33.67;;;22.20;;
9124;SDS011;4597;48.730;9.114;2023-02-15T17:52:13;33.93;;;22.53;;
9124;SDS011;4597;48.730;9.114;2023-02-15T17:54:39;37.80;;;23.50;;
9124;SDS011;4597;48.730;9.114;2023-02-15T17:57:24;36.87;;;23.23;;
9124;SDS011;4597;48.730;9.114;2023-02-15T17:59:50;30.80;;;20.50;;
9124;SDS011;4597;48.730;9.114;2023-02-15T18:02:35;28.97;;;20.57;;
9124;SDS011;4597;48.730;9.114;2023-02-15T18:05:20;33.60;;;21.70;;
9124;SDS011;4597;48.730;9.114;2023-02-15T18:08:07;41.10;;;23.80;;
9124;SDS011;4597;48.730;9.114;2023-02-15T18:11:00;35.67;;;23.43;;
9124;SDS011;4597;48.730;9.114;2023-02-15T18:13:45;39.33;;;22.77;;
9124;SDS011;4597;48.730;9.114;2023-02-15T18:16:15;30.80;;;22.00;;
9124;SDS011;4597;48.730;9.114;2023-02-15T18:18:46;29.93;;;21.10;;
9124;SDS011;4597;48.730;9.114;2023-02-15T18:21:12;29.63;;;21.30;;
9124;SDS011;4597;48.730;9.114;2023-02-15T18:23:38;31.50;;;21.37;;
9124;SDS011;4597;48.730;9.114;2023-02-15T18:26:04;31.03;;;21.17;;
9124;SDS011;4597;48.730;9.114;2023-02-15T18:28:30;30.60;;;20.27;;